createdAt,value
2023-03-30T15:33:16.727Z,988.50
2023-03-30T15:34:16.616Z,988.61
2023-03-30T15:36:11.154Z,988.55
2023-03-30T15:37:11.216Z,988.49
2023-03-30T15:39:15.802Z,988.64
2023-03-30T15:40:15.578Z,988.56
2023-03-30T15:42:19.806Z,988.52
2023-03-30T15:43:19.562Z,988.50
2023-03-30T15:45:24.224Z,988.56
2023-03-30T15:46:24.352Z,988.48
2023-03-30T15:48:17.349Z,988.48
2023-03-30T15:49:17.394Z,988.46
2023-03-30T15:51:23.145Z,988.46
2023-03-30T15:52:22.845Z,988.44
2023-03-30T15:54:28.148Z,988.38
2023-03-30T15:55:28.042Z,988.37
2023-03-30T15:57:32.368Z,988.28
2023-03-30T15:58:32.088Z,988.29
2023-03-30T16:00:37.016Z,988.27
2023-03-30T16:01:37.008Z,988.26
2023-03-30T16:03:42.429Z,988.27
2023-03-30T16:04:43.071Z,988.28
2023-03-30T16:06:47.683Z,988.25
2023-03-30T16:07:46.721Z,988.30
2023-03-30T16:09:51.827Z,988.33
2023-03-30T16:10:51.503Z,988.34
2023-03-30T16:12:56.961Z,988.27
2023-03-30T16:13:56.864Z,988.28
2023-03-30T16:14:56.808Z,988.28
2023-03-30T16:15:56.720Z,988.25
2023-03-30T16:16:57.392Z,988.21
2023-03-30T16:17:56.467Z,988.27
2023-03-30T16:18:56.403Z,988.31
2023-03-30T16:19:56.402Z,988.29
2023-03-30T16:20:56.374Z,988.29
2023-03-30T16:21:56.368Z,988.32
2023-03-30T16:22:56.354Z,988.33
2023-03-30T16:23:56.336Z,988.32
2023-03-30T16:24:56.335Z,988.36
2023-03-30T16:25:56.335Z,988.41
2023-03-30T16:26:56.296Z,988.46
2023-03-30T16:27:56.281Z,988.53
2023-03-30T16:28:56.272Z,988.68
2023-03-30T16:29:56.911Z,988.82
2023-03-30T16:30:56.252Z,988.83
2023-03-30T16:31:56.306Z,988.90
2023-03-30T16:32:56.302Z,988.95
2023-03-30T16:33:56.210Z,989.01
2023-03-30T16:34:56.191Z,989.04
2023-03-30T16:35:56.200Z,988.93
2023-03-30T16:36:56.164Z,988.93
2023-03-30T16:37:56.141Z,988.86
2023-03-30T16:38:56.132Z,988.84
2023-03-30T16:39:56.115Z,988.82
2023-03-30T16:40:56.117Z,988.81
2023-03-30T16:41:56.140Z,988.83
2023-03-30T16:42:56.086Z,988.76
2023-03-30T16:43:56.065Z,988.76
2023-03-30T16:44:56.047Z,988.67
2023-03-30T16:45:56.045Z,988.65
2023-03-30T16:46:56.028Z,988.60
2023-03-30T16:47:56.078Z,988.59
2023-03-30T16:48:55.989Z,988.63
2023-03-30T16:49:55.976Z,988.57
2023-03-30T16:50:55.971Z,988.52
2023-03-30T16:51:58.103Z,988.57
2023-03-30T16:52:55.929Z,988.54
2023-03-30T16:53:55.919Z,988.53
2023-03-30T16:54:55.904Z,988.52
2023-03-30T16:55:55.883Z,988.56
2023-03-30T16:56:55.931Z,988.53
2023-03-30T16:57:55.922Z,988.57
2023-03-30T16:58:55.841Z,988.60
2023-03-30T16:59:55.832Z,988.58
2023-03-30T17:00:55.854Z,988.59
2023-03-30T17:01:55.806Z,988.61
2023-03-30T17:02:55.822Z,988.58
2023-03-30T17:03:55.772Z,988.58
2023-03-30T17:04:55.770Z,988.57
2023-03-30T17:05:55.738Z,988.60
2023-03-30T17:06:55.752Z,988.59
2023-03-30T17:07:55.738Z,988.62
2023-03-30T17:08:55.703Z,988.64
2023-03-30T17:09:55.688Z,988.61
2023-03-30T17:10:55.675Z,988.66
2023-03-30T17:11:55.651Z,988.71
2023-03-30T17:12:55.637Z,988.75
2023-03-30T17:13:55.624Z,988.80
2023-03-30T17:14:55.620Z,988.79
2023-03-30T17:15:55.603Z,988.81
2023-03-30T17:16:55.633Z,988.91
2023-03-30T17:17:55.632Z,988.88
2023-03-30T17:18:55.614Z,988.80
2023-03-30T17:19:55.562Z,988.80
2023-03-30T17:20:55.518Z,988.67
2023-03-30T17:21:55.504Z,988.75
2023-03-30T17:22:55.491Z,988.70
2023-03-30T17:23:55.479Z,988.70
2023-03-30T17:24:55.462Z,988.67
2023-03-30T17:25:55.516Z,988.72
2023-03-30T17:26:55.455Z,988.71
2023-03-30T17:27:55.430Z,988.65
2023-03-30T17:28:55.405Z,988.66
2023-03-30T17:29:55.403Z,988.67
2023-03-30T17:30:55.421Z,988.64
2023-03-30T17:31:55.359Z,988.74
2023-03-30T17:32:55.410Z,988.74
2023-03-30T17:33:55.342Z,988.75
2023-03-30T17:34:55.312Z,988.69
2023-03-30T17:35:55.303Z,988.76
2023-03-30T17:36:55.285Z,988.75
2023-03-30T17:37:55.270Z,988.78
2023-03-30T17:38:55.253Z,988.74
2023-03-30T17:39:55.300Z,988.81
2023-03-30T17:40:55.222Z,988.78
2023-03-30T17:41:55.207Z,988.78
2023-03-30T17:42:55.227Z,988.65
2023-03-30T17:43:55.184Z,988.76
2023-03-30T17:44:55.174Z,988.81
2023-03-30T17:45:55.176Z,988.78
2023-03-30T17:46:55.134Z,988.85
2023-03-30T17:47:55.173Z,988.90
2023-03-30T17:48:55.102Z,988.86
2023-03-30T17:49:55.152Z,988.84
2023-03-30T17:50:55.073Z,988.89
2023-03-30T17:51:55.106Z,988.83
2023-03-30T17:52:55.049Z,988.88
2023-03-30T17:53:55.032Z,988.95
2023-03-30T17:54:55.016Z,988.94
2023-03-30T17:55:55.020Z,988.93
2023-03-30T17:56:55.026Z,988.92
2023-03-30T17:57:55.182Z,988.99
2023-03-30T17:58:54.964Z,988.94
2023-03-30T17:59:54.999Z,988.93
2023-03-30T18:00:54.933Z,988.99
2023-03-30T18:01:54.949Z,988.98
2023-03-30T18:02:54.940Z,989.01
2023-03-30T18:03:54.918Z,989.02
2023-03-30T18:04:54.908Z,989.04
2023-03-30T18:05:54.861Z,988.98
2023-03-30T18:06:54.902Z,988.98
2023-03-30T18:07:54.827Z,988.94
2023-03-30T18:08:54.831Z,988.99
2023-03-30T18:09:54.888Z,988.99
2023-03-30T18:10:54.787Z,988.98
2023-03-30T18:11:54.766Z,988.96
2023-03-30T18:12:54.782Z,989.01
2023-03-30T18:13:54.732Z,989.00
2023-03-30T18:14:54.719Z,988.99
2023-03-30T18:15:55.087Z,988.99
2023-03-30T18:17:54.754Z,989.02
2023-03-30T18:18:55.460Z,989.03
2023-03-30T18:19:54.643Z,989.07
2023-03-30T18:20:54.630Z,989.07
2023-03-30T18:21:54.616Z,989.06
2023-03-30T18:22:54.598Z,989.07
2023-03-30T18:23:54.585Z,989.12
2023-03-30T18:24:54.566Z,989.10
2023-03-30T18:25:54.558Z,989.12
2023-03-30T18:26:54.559Z,989.13
2023-03-30T18:27:54.521Z,989.14
2023-03-30T18:28:54.522Z,989.12
2023-03-30T18:29:54.488Z,989.08
2023-03-30T18:30:54.477Z,989.10
2023-03-30T18:31:54.521Z,989.12
2023-03-30T18:32:54.467Z,989.09
2023-03-30T18:33:54.438Z,989.16
2023-03-30T18:34:54.411Z,989.18
2023-03-30T18:35:54.436Z,989.22
2023-03-30T18:36:54.510Z,989.26
2023-03-30T18:37:54.366Z,989.27
2023-03-30T18:38:54.351Z,989.28
2023-03-30T18:39:54.329Z,989.25
2023-03-30T18:40:54.327Z,989.29
2023-03-30T18:41:54.316Z,989.18
2023-03-30T18:42:54.296Z,989.24
2023-03-30T18:43:54.275Z,989.26
2023-03-30T18:44:54.308Z,989.27
2023-03-30T18:45:54.306Z,989.17
2023-03-30T18:46:54.231Z,989.24
2023-03-30T18:47:54.276Z,989.24
2023-03-30T18:48:54.192Z,989.18
2023-03-30T18:49:54.193Z,989.17
2023-03-30T18:50:54.165Z,989.16
2023-03-30T18:51:54.148Z,989.18
2023-03-30T18:52:54.498Z,989.15
2023-03-30T18:53:54.146Z,989.20
2023-03-30T18:54:54.104Z,989.22
2023-03-30T18:55:54.114Z,989.24
2023-03-30T18:56:54.407Z,989.34
2023-03-30T18:57:54.066Z,989.26
2023-03-30T18:58:54.042Z,989.31
2023-03-30T18:59:54.035Z,989.36
2023-03-30T19:00:54.053Z,989.38
2023-03-30T19:01:54.033Z,989.39
2023-03-30T19:02:55.157Z,989.42
2023-03-30T19:03:54.133Z,989.41
2023-03-30T19:04:53.951Z,989.38
2023-03-30T19:05:53.938Z,989.42
2023-03-30T19:06:53.921Z,989.47
2023-03-30T19:07:53.912Z,989.46
2023-03-30T19:08:53.895Z,989.46
2023-03-30T19:09:53.885Z,989.45
2023-03-30T19:10:53.865Z,989.43
2023-03-30T19:11:53.865Z,989.47
2023-03-30T19:12:53.844Z,989.48
2023-03-30T19:13:53.824Z,989.45
2023-03-30T19:14:53.805Z,989.50
2023-03-30T19:15:53.802Z,989.51
2023-03-30T19:16:53.807Z,989.59
2023-03-30T19:17:53.834Z,989.54
2023-03-30T19:18:53.745Z,989.56
2023-03-30T19:19:53.731Z,989.52
2023-03-30T19:20:53.721Z,989.53
2023-03-30T19:21:53.697Z,989.48
2023-03-30T19:22:53.691Z,989.57
2023-03-30T19:23:53.672Z,989.53
2023-03-30T19:24:53.652Z,989.50
2023-03-30T19:25:53.661Z,989.43
2023-03-30T19:26:53.625Z,989.49
2023-03-30T19:28:02.616Z,989.48
2023-03-30T19:28:53.607Z,989.50
2023-03-30T19:29:53.580Z,989.49
2023-03-30T19:30:53.603Z,989.48
2023-03-30T19:31:53.559Z,989.43
2023-03-30T19:32:53.626Z,989.42
2023-03-30T19:33:53.518Z,989.49
2023-03-30T19:34:53.504Z,989.46
2023-03-30T19:35:53.622Z,989.42
2023-03-30T19:36:53.473Z,989.41
2023-03-30T19:37:53.473Z,989.35
2023-03-30T19:38:53.452Z,989.32
2023-03-30T19:39:53.457Z,989.25
2023-03-30T19:40:53.500Z,989.30
2023-03-30T19:41:53.420Z,989.31
2023-03-30T19:42:53.387Z,989.30
2023-03-30T19:43:53.371Z,989.32
2023-03-30T19:44:53.353Z,989.29
2023-03-30T19:45:53.372Z,989.31
2023-03-30T19:46:53.328Z,989.30
2023-03-30T19:47:53.357Z,989.29
2023-03-30T19:48:53.302Z,989.28
2023-03-30T19:49:53.289Z,989.32
2023-03-30T19:50:53.278Z,989.37
2023-03-30T19:51:53.253Z,989.31
2023-03-30T19:52:53.235Z,989.33
2023-03-30T19:53:53.230Z,989.32
2023-03-30T19:54:53.233Z,989.29
2023-03-30T19:55:53.191Z,989.39
2023-03-30T19:56:53.223Z,989.31
2023-03-30T19:57:53.202Z,989.32
2023-03-30T19:58:53.195Z,989.36
2023-03-30T19:59:53.148Z,989.35
2023-03-30T20:00:53.120Z,989.33
2023-03-30T20:01:53.190Z,989.29
2023-03-30T20:02:53.220Z,989.39
2023-03-30T20:03:53.171Z,989.32
2023-03-30T20:04:53.059Z,989.36
2023-03-30T20:05:53.039Z,989.46
2023-03-30T20:06:53.058Z,989.43
2023-03-30T20:07:53.013Z,989.44
2023-03-30T20:08:53.010Z,989.43
2023-03-30T20:09:52.979Z,989.40
2023-03-30T20:10:52.966Z,989.42
2023-03-30T20:11:52.948Z,989.40
2023-03-30T20:12:52.963Z,989.45
2023-03-30T20:13:52.919Z,989.42
2023-03-30T20:14:52.908Z,989.49
2023-03-30T20:15:52.939Z,989.41
2023-03-30T20:16:52.872Z,989.44
2023-03-30T20:17:52.925Z,989.49
2023-03-30T20:18:52.863Z,989.45
2023-03-30T20:19:52.836Z,989.46
2023-03-30T20:20:52.812Z,989.40
2023-03-30T20:21:52.800Z,989.38
2023-03-30T20:22:52.783Z,989.39
2023-03-30T20:23:52.784Z,989.38
2023-03-30T20:24:52.752Z,989.40
2023-03-30T20:25:52.746Z,989.36
2023-03-30T20:26:52.735Z,989.31
2023-03-30T20:27:52.727Z,989.36
2023-03-30T20:28:52.695Z,989.41
2023-03-30T20:29:52.681Z,989.36
2023-03-30T20:30:52.674Z,989.35
2023-03-30T20:31:52.690Z,989.43
2023-03-30T20:33:06.255Z,989.41
2023-03-30T20:33:52.618Z,989.39
2023-03-30T20:34:52.598Z,989.33
2023-03-30T20:35:52.657Z,989.26
2023-03-30T20:36:52.586Z,989.27
2023-03-30T20:37:52.583Z,989.26
2023-03-30T20:38:52.587Z,989.25
2023-03-30T20:39:52.584Z,989.32
2023-03-30T20:40:52.530Z,989.31
2023-03-30T20:41:52.505Z,989.24
2023-03-30T20:42:52.493Z,989.20
2023-03-30T20:43:56.262Z,989.22
2023-03-30T20:44:52.453Z,989.16
2023-03-30T20:45:52.461Z,989.15
2023-03-30T20:46:52.417Z,989.18
2023-03-30T20:47:52.431Z,989.18
2023-03-30T20:48:52.392Z,989.19
2023-03-30T20:49:52.386Z,989.21
2023-03-30T20:50:52.358Z,989.14
2023-03-30T20:51:52.354Z,989.08
2023-03-30T20:52:53.222Z,989.06
2023-03-30T20:53:52.354Z,989.01
2023-03-30T20:54:52.303Z,989.02
2023-03-30T20:55:52.285Z,989.06
2023-03-30T20:56:52.285Z,989.04
2023-03-30T20:57:52.279Z,989.02
2023-03-30T20:58:52.240Z,988.97
2023-03-30T20:59:52.241Z,989.05
2023-03-30T21:00:52.296Z,989.03
2023-03-30T21:01:52.344Z,989.01
2023-03-30T21:02:52.233Z,989.02
2023-03-30T21:03:52.198Z,988.98
2023-03-30T21:04:52.153Z,989.06
2023-03-30T21:05:52.144Z,989.00
2023-03-30T21:06:52.127Z,989.02
2023-03-30T21:07:52.119Z,989.04
2023-03-30T21:08:52.087Z,989.11
2023-03-30T21:09:52.099Z,989.12
2023-03-30T21:10:52.102Z,989.15
2023-03-30T21:11:52.099Z,989.15
2023-03-30T21:12:52.093Z,989.14
2023-03-30T21:13:52.025Z,989.17
2023-03-30T21:14:52.060Z,989.18
2023-03-30T21:15:51.985Z,989.17
2023-03-30T21:16:51.997Z,989.12
2023-03-30T21:17:51.991Z,989.09
2023-03-30T21:18:51.938Z,989.07
2023-03-30T21:19:51.922Z,989.08
2023-03-30T21:20:51.906Z,989.01
2023-03-30T21:21:51.909Z,989.05
2023-03-30T21:22:51.888Z,989.00
2023-03-30T21:23:51.884Z,988.99
2023-03-30T21:24:51.853Z,988.98
2023-03-30T21:25:51.826Z,988.90
2023-03-30T21:26:51.873Z,988.89
2023-03-30T21:27:51.799Z,988.92
2023-03-30T21:28:51.784Z,988.91
2023-03-30T21:29:51.764Z,988.98
2023-03-30T21:30:51.802Z,988.94
2023-03-30T21:31:51.745Z,988.96
2023-03-30T21:32:51.735Z,988.97
2023-03-30T21:33:51.709Z,988.98
2023-03-30T21:34:51.689Z,988.94
2023-03-30T21:35:51.741Z,989.00
2023-03-30T21:36:51.743Z,988.94
2023-03-30T21:37:51.644Z,988.93
2023-03-30T21:38:51.642Z,988.87
2023-03-30T21:39:51.624Z,988.81
2023-03-30T21:40:51.606Z,988.81
2023-03-30T21:41:51.583Z,988.73
2023-03-30T21:42:52.304Z,988.78
2023-03-30T21:43:51.554Z,988.72
2023-03-30T21:44:51.534Z,988.72
2023-03-30T21:45:51.530Z,988.74
2023-03-30T21:46:51.562Z,988.71
2023-03-30T21:47:51.508Z,988.74
2023-03-30T21:48:53.702Z,988.73
2023-03-30T21:49:51.471Z,988.73
2023-03-30T21:50:51.445Z,988.71
2023-03-30T21:51:51.425Z,988.69
2023-03-30T21:52:51.412Z,988.71
2023-03-30T21:53:51.400Z,988.71
2023-03-30T21:54:51.390Z,988.65
2023-03-30T21:55:51.385Z,988.65
2023-03-30T21:56:51.394Z,988.65
2023-03-30T21:57:51.334Z,988.64
2023-03-30T21:58:51.335Z,988.66
2023-03-30T21:59:51.320Z,988.60
2023-03-30T22:01:01.018Z,988.56
2023-03-30T22:01:51.325Z,988.52
2023-03-30T22:02:51.372Z,988.51
2023-03-30T22:03:51.310Z,988.52
2023-03-30T22:04:51.235Z,988.49
2023-03-30T22:05:51.219Z,988.52
2023-03-30T22:06:51.196Z,988.45
2023-03-30T22:07:51.188Z,988.44
2023-03-30T22:08:51.171Z,988.45
2023-03-30T22:09:51.156Z,988.40
2023-03-30T22:10:51.146Z,988.38
2023-03-30T22:11:51.128Z,988.37
2023-03-30T22:12:51.107Z,988.37
2023-03-30T22:13:51.089Z,988.27
2023-03-30T22:14:51.072Z,988.31
2023-03-30T22:15:51.078Z,988.29
2023-03-30T22:16:51.057Z,988.26
2023-03-30T22:17:51.063Z,988.25
2023-03-30T22:18:51.019Z,988.25
2023-03-30T22:19:51.013Z,988.28
2023-03-30T22:20:51.011Z,988.29
2023-03-30T22:21:50.968Z,988.24
2023-03-30T22:22:50.955Z,988.23
2023-03-30T22:23:50.946Z,988.21
2023-03-30T22:24:50.929Z,988.13
2023-03-30T22:25:50.919Z,988.12
2023-03-30T22:26:50.890Z,988.11
2023-03-30T22:27:50.889Z,988.08
2023-03-30T22:28:50.862Z,988.07
2023-03-30T22:29:50.849Z,988.05
2023-03-30T22:30:50.834Z,988.01
2023-03-30T22:31:50.839Z,988.00
2023-03-30T22:32:50.854Z,987.99
2023-03-30T22:33:50.794Z,987.95
2023-03-30T22:34:50.782Z,987.92
2023-03-30T22:35:50.768Z,987.97
2023-03-30T22:36:50.741Z,988.05
2023-03-30T22:37:50.729Z,988.03
2023-03-30T22:38:50.721Z,988.05
2023-03-30T22:39:50.698Z,988.04
2023-03-30T22:40:50.681Z,988.06
2023-03-30T22:41:50.677Z,988.04
2023-03-30T22:42:50.652Z,987.96
2023-03-30T22:43:50.641Z,987.97
2023-03-30T22:44:50.620Z,988.01
2023-03-30T22:45:50.657Z,988.02
2023-03-30T22:46:50.591Z,987.99
2023-03-30T22:47:50.597Z,988.02
2023-03-30T22:48:50.559Z,988.06
2023-03-30T22:49:50.556Z,988.05
2023-03-30T22:50:50.529Z,988.00
2023-03-30T22:51:52.044Z,987.98
2023-03-30T22:52:50.506Z,987.95
2023-03-30T22:53:50.496Z,987.98
2023-03-30T22:54:50.487Z,987.97
2023-03-30T22:55:50.457Z,987.94
2023-03-30T22:56:50.451Z,987.94
2023-03-30T22:57:50.427Z,987.90
2023-03-30T22:58:50.408Z,987.87
2023-03-30T22:59:50.407Z,987.84
2023-03-30T23:00:50.464Z,987.86
2023-03-30T23:01:50.363Z,987.84
2023-03-30T23:02:50.462Z,987.80
2023-03-30T23:03:50.395Z,987.79
2023-03-30T23:04:50.316Z,987.79
2023-03-30T23:05:50.296Z,987.76
2023-03-30T23:06:50.281Z,987.70
2023-03-30T23:07:50.269Z,987.67
2023-03-30T23:08:50.251Z,987.64
2023-03-30T23:09:50.240Z,987.65
2023-03-30T23:10:50.225Z,987.64
2023-03-30T23:11:50.206Z,987.62
2023-03-30T23:12:50.196Z,987.60
2023-03-30T23:13:50.214Z,987.62
2023-03-30T23:14:50.157Z,987.58
2023-03-30T23:15:50.158Z,987.54
2023-03-30T23:16:50.197Z,987.57
2023-03-30T23:17:50.146Z,987.58
2023-03-30T23:18:50.096Z,987.56
2023-03-30T23:19:50.095Z,987.59
2023-03-30T23:20:50.066Z,987.52
2023-03-30T23:21:50.055Z,987.49
2023-03-30T23:22:50.044Z,987.47
2023-03-30T23:23:50.026Z,987.47
2023-03-30T23:24:50.004Z,987.46
2023-03-30T23:25:49.995Z,987.42
2023-03-30T23:26:49.991Z,987.42
2023-03-30T23:27:49.958Z,987.41
2023-03-30T23:28:49.947Z,987.43
2023-03-30T23:29:49.935Z,987.39
2023-03-30T23:30:49.933Z,987.37
2023-03-30T23:31:49.903Z,987.40
2023-03-30T23:32:49.935Z,987.35
2023-03-30T23:33:49.872Z,987.32
2023-03-30T23:34:49.863Z,987.26
2023-03-30T23:35:49.955Z,987.28
2023-03-30T23:36:49.842Z,987.27
2023-03-30T23:37:49.811Z,987.21
2023-03-30T23:38:49.789Z,987.22
2023-03-30T23:39:49.781Z,987.24
2023-03-30T23:40:49.768Z,987.20
2023-03-30T23:41:49.772Z,987.18
2023-03-30T23:42:49.737Z,987.16
2023-03-30T23:43:49.717Z,987.11
2023-03-30T23:44:49.709Z,987.16
2023-03-30T23:45:49.703Z,987.07
2023-03-30T23:46:49.781Z,987.07
2023-03-30T23:47:49.744Z,987.03
2023-03-30T23:48:49.639Z,987.02
2023-03-30T23:49:49.622Z,987.02
2023-03-30T23:50:49.610Z,986.98
2023-03-30T23:51:49.595Z,986.98
2023-03-30T23:52:49.588Z,986.98
2023-03-30T23:53:49.563Z,986.91
2023-03-30T23:54:49.559Z,986.92
2023-03-30T23:55:49.536Z,986.93
2023-03-30T23:56:49.692Z,986.91
2023-03-30T23:57:49.512Z,986.89
2023-03-30T23:58:49.489Z,986.90
2023-03-30T23:59:49.472Z,986.86
